sensor_id;sensor_type;location;lat;lon;timestamp;temperature;humidity
36800;DHT22;22752;51.960;5.886;2022-11-20T00:00:54;-2.20;99.90
36800;DHT22;22752;51.960;5.886;2022-11-20T00:03:19;-2.30;99.90
36800;DHT22;22752;51.960;5.886;2022-11-20T00:05:45;-2.30;99.90
36800;DHT22;22752;51.960;5.886;2022-11-20T00:08:11;-2.40;99.90
36800;DHT22;22752;51.960;5.886;2022-11-20T00:10:38;-2.40;99.90
36800;DHT22;22752;51.960;5.886;2022-11-20T00:13:04;-2.50;99.90
36800;DHT22;22752;51.960;5.886;2022-11-20T00:15:30;-2.50;99.90
36800;DHT22;22752;51.960;5.886;2022-11-20T00:17:55;-2.50;99.90
36800;DHT22;22752;51.960;5.886;2022-11-20T00:20:21;-2.60;99.90
36800;DHT22;22752;51.960;5.886;2022-11-20T00:22:47;-2.70;99.90
36800;DHT22;22752;51.960;5.886;2022-11-20T00:25:13;-2.70;99.90
36800;DHT22;22752;51.960;5.886;2022-11-20T00:27:38;-2.80;99.90
36800;DHT22;22752;51.960;5.886;2022-11-20T00:30:05;-2.80;99.90
36800;DHT22;22752;51.960;5.886;2022-11-20T00:32:31;-2.90;99.90
36800;DHT22;22752;51.960;5.886;2022-11-20T00:34:56;-2.90;99.90
36800;DHT22;22752;51.960;5.886;2022-11-20T00:37:22;-2.90;99.90
36800;DHT22;22752;51.960;5.886;2022-11-20T00:39:47;-2.90;99.90
36800;DHT22;22752;51.960;5.886;2022-11-20T00:42:14;-2.80;99.90
36800;DHT22;22752;51.960;5.886;2022-11-20T00:44:40;-2.80;99.90
36800;DHT22;22752;51.960;5.886;2022-11-20T00:47:05;-2.90;99.90
36800;DHT22;22752;51.960;5.886;2022-11-20T00:49:31;-2.90;99.90
36800;DHT22;22752;51.960;5.886;2022-11-20T00:51:56;-3.00;99.90
36800;DHT22;22752;51.960;5.886;2022-11-20T00:54:22;-3.00;99.90
36800;DHT22;22752;51.960;5.886;2022-11-20T00:56:48;-2.90;99.90
36800;DHT22;22752;51.960;5.886;2022-11-20T00:59:13;-3.10;99.90
36800;DHT22;22752;51.960;5.886;2022-11-20T01:01:39;-3.10;99.90
36800;DHT22;22752;51.960;5.886;2022-11-20T01:04:05;-3.10;99.90
36800;DHT22;22752;51.960;5.886;2022-11-20T01:06:36;-3.00;99.90
36800;DHT22;22752;51.960;5.886;2022-11-20T01:09:13;-2.90;99.90
36800;DHT22;22752;51.960;5.886;2022-11-20T01:11:41;-2.90;99.90
36800;DHT22;22752;51.960;5.886;2022-11-20T01:14:10;-2.90;99.90
36800;DHT22;22752;51.960;5.886;2022-11-20T01:16:41;-3.00;99.90
36800;DHT22;22752;51.960;5.886;2022-11-20T01:19:11;-3.00;99.90
36800;DHT22;22752;51.960;5.886;2022-11-20T01:21:41;-3.00;99.90
36800;DHT22;22752;51.960;5.886;2022-11-20T01:24:11;-3.00;99.90
36800;DHT22;22752;51.960;5.886;2022-11-20T01:26:39;-3.00;99.90
36800;DHT22;22752;51.960;5.886;2022-11-20T01:29:06;-3.00;99.90
36800;DHT22;22752;51.960;5.886;2022-11-20T01:31:34;-3.00;99.90
36800;DHT22;22752;51.960;5.886;2022-11-20T01:34:20;-3.00;99.90
36800;DHT22;22752;51.960;5.886;2022-11-20T01:36:46;-3.00;99.90
36800;DHT22;22752;51.960;5.886;2022-11-20T01:39:14;-3.00;99.90
36800;DHT22;22752;51.960;5.886;2022-11-20T01:41:41;-3.00;99.90
36800;DHT22;22752;51.960;5.886;2022-11-20T01:47:21;-3.00;99.90
36800;DHT22;22752;51.960;5.886;2022-11-20T01:49:54;-2.90;99.90
36800;DHT22;22752;51.960;5.886;2022-11-20T01:52:30;-2.90;99.90
36800;DHT22;22752;51.960;5.886;2022-11-20T01:55:05;-2.90;99.90
36800;DHT22;22752;51.960;5.886;2022-11-20T01:57:32;-2.90;99.90
36800;DHT22;22752;51.960;5.886;2022-11-20T02:00:04;-2.80;99.90
36800;DHT22;22752;51.960;5.886;2022-11-20T02:02:31;-2.70;99.90
36800;DHT22;22752;51.960;5.886;2022-11-20T02:05:03;-2.70;99.90
36800;DHT22;22752;51.960;5.886;2022-11-20T02:07:30;-2.70;99.90
36800;DHT22;22752;51.960;5.886;2022-11-20T02:09:56;-2.70;99.90
36800;DHT22;22752;51.960;5.886;2022-11-20T02:12:21;-2.70;99.90
36800;DHT22;22752;51.960;5.886;2022-11-20T02:15:05;-2.80;99.90
36800;DHT22;22752;51.960;5.886;2022-11-20T02:17:31;-2.90;99.90
36800;DHT22;22752;51.960;5.886;2022-11-20T02:19:57;-3.00;99.90
36800;DHT22;22752;51.960;5.886;2022-11-20T02:22:35;-3.10;99.90
36800;DHT22;22752;51.960;5.886;2022-11-20T02:25:02;-3.10;99.90
36800;DHT22;22752;51.960;5.886;2022-11-20T02:27:29;-3.20;99.90
36800;DHT22;22752;51.960;5.886;2022-11-20T02:30:02;-3.20;99.90
36800;DHT22;22752;51.960;5.886;2022-11-20T02:32:34;-3.30;99.90
36800;DHT22;22752;51.960;5.886;2022-11-20T02:37:47;-3.30;99.90
36800;DHT22;22752;51.960;5.886;2022-11-20T02:40:14;-3.30;99.90
36800;DHT22;22752;51.960;5.886;2022-11-20T02:42:39;-3.30;99.90
36800;DHT22;22752;51.960;5.886;2022-11-20T02:45:06;-3.30;99.90
36800;DHT22;22752;51.960;5.886;2022-11-20T02:47:32;-3.40;99.90
36800;DHT22;22752;51.960;5.886;2022-11-20T02:49:59;-3.40;99.90
36800;DHT22;22752;51.960;5.886;2022-11-20T02:52:25;-3.40;99.90
36800;DHT22;22752;51.960;5.886;2022-11-20T02:54:51;-3.40;99.90
36800;DHT22;22752;51.960;5.886;2022-11-20T02:57:17;-3.40;99.90
36800;DHT22;22752;51.960;5.886;2022-11-20T02:59:43;-3.40;99.90
36800;DHT22;22752;51.960;5.886;2022-11-20T03:02:08;-3.40;99.90
36800;DHT22;22752;51.960;5.886;2022-11-20T03:04:34;-3.50;99.90
36800;DHT22;22752;51.960;5.886;2022-11-20T03:07:00;-3.60;99.90
36800;DHT22;22752;51.960;5.886;2022-11-20T03:09:25;-3.60;99.90
36800;DHT22;22752;51.960;5.886;2022-11-20T03:11:51;-3.60;99.90
36800;DHT22;22752;51.960;5.886;2022-11-20T03:14:17;-3.70;99.90
36800;DHT22;22752;51.960;5.886;2022-11-20T03:16:43;-3.70;99.90
36800;DHT22;22752;51.960;5.886;2022-11-20T03:19:08;-3.70;99.90
36800;DHT22;22752;51.960;5.886;2022-11-20T03:21:34;-3.70;99.90
36800;DHT22;22752;51.960;5.886;2022-11-20T03:24:00;-3.80;99.90
36800;DHT22;22752;51.960;5.886;2022-11-20T03:26:26;-3.70;99.90
36800;DHT22;22752;51.960;5.886;2022-11-20T03:29:00;-3.70;99.90
36800;DHT22;22752;51.960;5.886;2022-11-20T03:31:34;-3.70;99.90
36800;DHT22;22752;51.960;5.886;2022-11-20T03:34:01;-3.70;99.90
36800;DHT22;22752;51.960;5.886;2022-11-20T03:36:27;-3.70;99.90
36800;DHT22;22752;51.960;5.886;2022-11-20T03:38:54;-3.80;99.90
36800;DHT22;22752;51.960;5.886;2022-11-20T03:41:22;-3.70;99.90
36800;DHT22;22752;51.960;5.886;2022-11-20T03:43:53;-3.80;99.90
36800;DHT22;22752;51.960;5.886;2022-11-20T03:46:20;-3.80;99.90
36800;DHT22;22752;51.960;5.886;2022-11-20T03:48:46;-3.70;99.90
36800;DHT22;22752;51.960;5.886;2022-11-20T03:51:14;-3.70;99.90
36800;DHT22;22752;51.960;5.886;2022-11-20T03:53:41;-3.70;99.90
36800;DHT22;22752;51.960;5.886;2022-11-20T03:56:07;-3.80;99.90
36800;DHT22;22752;51.960;5.886;2022-11-20T03:58:37;-3.90;99.90
36800;DHT22;22752;51.960;5.886;2022-11-20T04:01:08;-3.90;99.90
36800;DHT22;22752;51.960;5.886;2022-11-20T04:03:35;-3.90;99.90
36800;DHT22;22752;51.960;5.886;2022-11-20T04:06:13;-4.00;99.90
36800;DHT22;22752;51.960;5.886;2022-11-20T04:08:40;-4.00;99.90
36800;DHT22;22752;51.960;5.886;2022-11-20T04:11:17;-4.10;99.90
36800;DHT22;22752;51.960;5.886;2022-11-20T04:13:47;-4.10;99.90
36800;DHT22;22752;51.960;5.886;2022-11-20T04:16:13;-4.10;99.90
36800;DHT22;22752;51.960;5.886;2022-11-20T04:18:38;-4.10;99.90
36800;DHT22;22752;51.960;5.886;2022-11-20T04:21:05;-4.10;99.90
36800;DHT22;22752;51.960;5.886;2022-11-20T04:23:31;-4.10;99.90
36800;DHT22;22752;51.960;5.886;2022-11-20T04:26:05;-4.10;99.90
36800;DHT22;22752;51.960;5.886;2022-11-20T04:28:31;-4.20;99.90
36800;DHT22;22752;51.960;5.886;2022-11-20T04:31:27;-4.20;99.90
36800;DHT22;22752;51.960;5.886;2022-11-20T04:33:53;-4.20;99.90
36800;DHT22;22752;51.960;5.886;2022-11-20T04:36:20;-4.20;99.90
36800;DHT22;22752;51.960;5.886;2022-11-20T04:38:51;-4.30;99.90
36800;DHT22;22752;51.960;5.886;2022-11-20T04:41:19;-4.30;99.90
36800;DHT22;22752;51.960;5.886;2022-11-20T04:43:49;-4.30;99.90
36800;DHT22;22752;51.960;5.886;2022-11-20T04:46:16;-4.30;99.90
36800;DHT22;22752;51.960;5.886;2022-11-20T04:48:42;-4.40;99.90
36800;DHT22;22752;51.960;5.886;2022-11-20T04:51:08;-4.40;99.90
36800;DHT22;22752;51.960;5.886;2022-11-20T04:53:33;-4.40;99.90
36800;DHT22;22752;51.960;5.886;2022-11-20T04:56:04;-4.40;99.90
36800;DHT22;22752;51.960;5.886;2022-11-20T04:58:30;-4.40;99.90
36800;DHT22;22752;51.960;5.886;2022-11-20T05:01:07;-4.40;99.90
36800;DHT22;22752;51.960;5.886;2022-11-20T05:03:33;-4.40;99.90
36800;DHT22;22752;51.960;5.886;2022-11-20T05:06:03;-4.50;99.90
36800;DHT22;22752;51.960;5.886;2022-11-20T05:08:31;-4.50;99.90
36800;DHT22;22752;51.960;5.886;2022-11-20T05:11:04;-4.50;99.90
36800;DHT22;22752;51.960;5.886;2022-11-20T05:13:30;-4.40;99.90
36800;DHT22;22752;51.960;5.886;2022-11-20T05:16:04;-4.50;99.90
36800;DHT22;22752;51.960;5.886;2022-11-20T05:18:30;-4.50;99.90
36800;DHT22;22752;51.960;5.886;2022-11-20T05:20:57;-4.50;99.90
36800;DHT22;22752;51.960;5.886;2022-11-20T05:23:23;-4.50;99.90
36800;DHT22;22752;51.960;5.886;2022-11-20T05:25:55;-4.50;99.90
36800;DHT22;22752;51.960;5.886;2022-11-20T05:28:21;-4.50;99.90
36800;DHT22;22752;51.960;5.886;2022-11-20T05:30:48;-4.60;99.90
36800;DHT22;22752;51.960;5.886;2022-11-20T05:33:13;-4.60;99.90
36800;DHT22;22752;51.960;5.886;2022-11-20T05:35:39;-4.60;99.90
36800;DHT22;22752;51.960;5.886;2022-11-20T05:38:04;-4.50;99.90
36800;DHT22;22752;51.960;5.886;2022-11-20T05:40:30;-4.40;99.90
36800;DHT22;22752;51.960;5.886;2022-11-20T05:42:56;-4.40;99.90
36800;DHT22;22752;51.960;5.886;2022-11-20T05:45:21;-4.40;99.90
36800;DHT22;22752;51.960;5.886;2022-11-20T05:47:47;-4.40;99.90
36800;DHT22;22752;51.960;5.886;2022-11-20T05:50:13;-4.50;99.90
36800;DHT22;22752;51.960;5.886;2022-11-20T05:52:40;-4.50;99.90
36800;DHT22;22752;51.960;5.886;2022-11-20T05:55:06;-4.50;99.90
36800;DHT22;22752;51.960;5.886;2022-11-20T05:57:32;-4.50;99.90
36800;DHT22;22752;51.960;5.886;2022-11-20T05:59:57;-4.40;99.90
36800;DHT22;22752;51.960;5.886;2022-11-20T06:02:23;-4.50;99.90
36800;DHT22;22752;51.960;5.886;2022-11-20T06:04:49;-4.50;99.90
36800;DHT22;22752;51.960;5.886;2022-11-20T06:07:14;-4.50;99.90
36800;DHT22;22752;51.960;5.886;2022-11-20T06:09:40;-4.40;99.90
36800;DHT22;22752;51.960;5.886;2022-11-20T06:12:06;-4.50;99.90
36800;DHT22;22752;51.960;5.886;2022-11-20T06:14:32;-4.50;99.90
36800;DHT22;22752;51.960;5.886;2022-11-20T06:16:58;-4.40;99.90
36800;DHT22;22752;51.960;5.886;2022-11-20T06:19:24;-4.40;99.90
36800;DHT22;22752;51.960;5.886;2022-11-20T06:21:49;-4.50;99.90
36800;DHT22;22752;51.960;5.886;2022-11-20T06:24:15;-4.50;99.90
36800;DHT22;22752;51.960;5.886;2022-11-20T06:26:41;-4.50;99.90
36800;DHT22;22752;51.960;5.886;2022-11-20T06:29:07;-4.40;99.90
36800;DHT22;22752;51.960;5.886;2022-11-20T06:31:33;-4.40;99.90
36800;DHT22;22752;51.960;5.886;2022-11-20T06:34:00;-4.50;99.90
36800;DHT22;22752;51.960;5.886;2022-11-20T06:36:26;-4.50;99.90
36800;DHT22;22752;51.960;5.886;2022-11-20T06:38:52;-4.50;99.90
36800;DHT22;22752;51.960;5.886;2022-11-20T06:41:20;-4.60;99.90
36800;DHT22;22752;51.960;5.886;2022-11-20T06:43:46;-4.60;99.90
36800;DHT22;22752;51.960;5.886;2022-11-20T06:46:13;-4.60;99.90
36800;DHT22;22752;51.960;5.886;2022-11-20T06:48:40;-4.60;99.90
36800;DHT22;22752;51.960;5.886;2022-11-20T06:51:06;-4.60;99.90
36800;DHT22;22752;51.960;5.886;2022-11-20T06:53:33;-4.60;99.90
36800;DHT22;22752;51.960;5.886;2022-11-20T06:55:59;-4.70;99.90
36800;DHT22;22752;51.960;5.886;2022-11-20T06:58:27;-4.70;99.90
36800;DHT22;22752;51.960;5.886;2022-11-20T07:00:54;-4.70;99.90
36800;DHT22;22752;51.960;5.886;2022-11-20T07:03:20;-4.70;99.90
36800;DHT22;22752;51.960;5.886;2022-11-20T07:05:46;-4.80;99.90
36800;DHT22;22752;51.960;5.886;2022-11-20T07:08:12;-4.80;99.90
36800;DHT22;22752;51.960;5.886;2022-11-20T07:10:37;-4.70;99.90
36800;DHT22;22752;51.960;5.886;2022-11-20T07:13:03;-4.70;99.90
36800;DHT22;22752;51.960;5.886;2022-11-20T07:15:30;-4.70;99.90
36800;DHT22;22752;51.960;5.886;2022-11-20T07:17:58;-4.70;99.90
36800;DHT22;22752;51.960;5.886;2022-11-20T07:20:24;-4.80;99.90
36800;DHT22;22752;51.960;5.886;2022-11-20T07:22:54;-4.70;99.90
36800;DHT22;22752;51.960;5.886;2022-11-20T07:25:21;-4.60;99.90
36800;DHT22;22752;51.960;5.886;2022-11-20T07:27:47;-4.60;99.90
36800;DHT22;22752;51.960;5.886;2022-11-20T07:30:14;-4.50;99.90
36800;DHT22;22752;51.960;5.886;2022-11-20T07:32:39;-4.50;99.90
36800;DHT22;22752;51.960;5.886;2022-11-20T07:35:05;-4.40;99.90
36800;DHT22;22752;51.960;5.886;2022-11-20T07:37:34;-4.40;99.90
36800;DHT22;22752;51.960;5.886;2022-11-20T07:40:00;-4.30;99.90
36800;DHT22;22752;51.960;5.886;2022-11-20T07:42:25;-4.20;99.90
36800;DHT22;22752;51.960;5.886;2022-11-20T07:44:51;-4.20;99.90
36800;DHT22;22752;51.960;5.886;2022-11-20T07:47:17;-4.10;99.90
36800;DHT22;22752;51.960;5.886;2022-11-20T07:49:42;-4.00;99.90
36800;DHT22;22752;51.960;5.886;2022-11-20T07:52:08;-3.90;99.90
36800;DHT22;22752;51.960;5.886;2022-11-20T07:54:34;-3.70;99.90
36800;DHT22;22752;51.960;5.886;2022-11-20T07:56:59;-3.60;99.90
36800;DHT22;22752;51.960;5.886;2022-11-20T07:59:25;-3.40;99.90
36800;DHT22;22752;51.960;5.886;2022-11-20T08:01:50;-3.30;99.90
36800;DHT22;22752;51.960;5.886;2022-11-20T08:04:16;-3.20;99.90
36800;DHT22;22752;51.960;5.886;2022-11-20T08:06:42;-3.20;99.90
36800;DHT22;22752;51.960;5.886;2022-11-20T08:09:07;-3.10;99.90
36800;DHT22;22752;51.960;5.886;2022-11-20T08:11:33;-3.00;99.90
36800;DHT22;22752;51.960;5.886;2022-11-20T08:14:17;-2.90;99.90
36800;DHT22;22752;51.960;5.886;2022-11-20T08:16:48;-2.80;99.90
36800;DHT22;22752;51.960;5.886;2022-11-20T08:19:17;-2.60;99.90
36800;DHT22;22752;51.960;5.886;2022-11-20T08:21:44;-2.60;99.90
36800;DHT22;22752;51.960;5.886;2022-11-20T08:24:10;-2.50;99.90
36800;DHT22;22752;51.960;5.886;2022-11-20T08:26:37;-2.40;99.90
36800;DHT22;22752;51.960;5.886;2022-11-20T08:29:04;-2.30;99.90
36800;DHT22;22752;51.960;5.886;2022-11-20T08:31:30;-2.20;99.90
36800;DHT22;22752;51.960;5.886;2022-11-20T08:33:56;-2.10;99.90
36800;DHT22;22752;51.960;5.886;2022-11-20T08:36:23;-2.00;99.90
36800;DHT22;22752;51.960;5.886;2022-11-20T08:38:55;-1.90;99.90
36800;DHT22;22752;51.960;5.886;2022-11-20T08:41:21;-1.80;99.90
36800;DHT22;22752;51.960;5.886;2022-11-20T08:44:00;-1.70;99.90
36800;DHT22;22752;51.960;5.886;2022-11-20T08:46:32;-1.60;99.90
36800;DHT22;22752;51.960;5.886;2022-11-20T08:48:59;-1.50;99.90
36800;DHT22;22752;51.960;5.886;2022-11-20T08:51:24;-1.40;99.90
36800;DHT22;22752;51.960;5.886;2022-11-20T08:53:50;-1.30;99.90
36800;DHT22;22752;51.960;5.886;2022-11-20T08:56:16;-1.30;99.90
36800;DHT22;22752;51.960;5.886;2022-11-20T08:58:43;-1.20;99.90
36800;DHT22;22752;51.960;5.886;2022-11-20T09:01:09;-1.10;99.90
36800;DHT22;22752;51.960;5.886;2022-11-20T09:03:35;-1.00;99.90
36800;DHT22;22752;51.960;5.886;2022-11-20T09:06:05;-0.90;99.90
36800;DHT22;22752;51.960;5.886;2022-11-20T09:08:32;-0.90;99.90
36800;DHT22;22752;51.960;5.886;2022-11-20T09:10:58;-0.80;99.90
36800;DHT22;22752;51.960;5.886;2022-11-20T09:13:24;-0.70;99.90
36800;DHT22;22752;51.960;5.886;2022-11-20T09:16:07;-0.60;99.90
36800;DHT22;22752;51.960;5.886;2022-11-20T09:18:34;-0.50;99.90
36800;DHT22;22752;51.960;5.886;2022-11-20T09:21:08;-0.40;99.90
36800;DHT22;22752;51.960;5.886;2022-11-20T09:23:36;-0.40;99.90
36800;DHT22;22752;51.960;5.886;2022-11-20T09:26:10;-0.30;99.90
36800;DHT22;22752;51.960;5.886;2022-11-20T09:28:36;-0.30;99.90
36800;DHT22;22752;51.960;5.886;2022-11-20T09:31:07;-0.10;99.90
36800;DHT22;22752;51.960;5.886;2022-11-20T09:33:33;-0.10;99.90
36800;DHT22;22752;51.960;5.886;2022-11-20T09:35:59;0.00;99.90
36800;DHT22;22752;51.960;5.886;2022-11-20T09:38:24;0.00;99.90
36800;DHT22;22752;51.960;5.886;2022-11-20T09:41:05;0.00;99.90
36800;DHT22;22752;51.960;5.886;2022-11-20T09:49:07;0.10;99.90
36800;DHT22;22752;51.960;5.886;2022-11-20T09:51:59;0.20;99.90
36800;DHT22;22752;51.960;5.886;2022-11-20T09:54:34;0.30;99.90
36800;DHT22;22752;51.960;5.886;2022-11-20T09:57:35;0.40;99.90
36800;DHT22;22752;51.960;5.886;2022-11-20T10:00:05;0.50;99.90
36800;DHT22;22752;51.960;5.886;2022-11-20T10:05:21;0.60;99.90
36800;DHT22;22752;51.960;5.886;2022-11-20T10:07:53;0.70;99.90
36800;DHT22;22752;51.960;5.886;2022-11-20T10:10:38;0.70;99.90
36800;DHT22;22752;51.960;5.886;2022-11-20T10:15:56;0.90;99.90
36800;DHT22;22752;51.960;5.886;2022-11-20T10:21:08;1.10;99.90
36800;DHT22;22752;51.960;5.886;2022-11-20T10:23:52;1.20;99.90
36800;DHT22;22752;51.960;5.886;2022-11-20T10:29:19;1.30;99.90
36800;DHT22;22752;51.960;5.886;2022-11-20T10:31:54;1.30;99.90
36800;DHT22;22752;51.960;5.886;2022-11-20T10:34:27;1.30;99.90
36800;DHT22;22752;51.960;5.886;2022-11-20T10:37:45;1.40;99.90
36800;DHT22;22752;51.960;5.886;2022-11-20T10:39:59;1.50;99.90
36800;DHT22;22752;51.960;5.886;2022-11-20T10:42:43;1.60;99.90
36800;DHT22;22752;51.960;5.886;2022-11-20T10:47:54;1.80;99.90
36800;DHT22;22752;51.960;5.886;2022-11-20T10:50:22;1.80;99.90
36800;DHT22;22752;51.960;5.886;2022-11-20T10:52:55;1.90;99.90
36800;DHT22;22752;51.960;5.886;2022-11-20T11:00:34;1.90;99.90
36800;DHT22;22752;51.960;5.886;2022-11-20T11:02:59;1.80;99.90
36800;DHT22;22752;51.960;5.886;2022-11-20T11:05:51;1.80;99.90
36800;DHT22;22752;51.960;5.886;2022-11-20T11:08:20;1.70;99.90
36800;DHT22;22752;51.960;5.886;2022-11-20T11:13:24;1.70;99.90
36800;DHT22;22752;51.960;5.886;2022-11-20T11:15:53;1.70;99.90
36800;DHT22;22752;51.960;5.886;2022-11-20T11:18:37;1.80;99.90
36800;DHT22;22752;51.960;5.886;2022-11-20T11:21:04;2.00;99.90
36800;DHT22;22752;51.960;5.886;2022-11-20T11:23:39;2.00;99.90
36800;DHT22;22752;51.960;5.886;2022-11-20T11:26:22;2.20;99.90
36800;DHT22;22752;51.960;5.886;2022-11-20T11:28:56;2.20;99.90
36800;DHT22;22752;51.960;5.886;2022-11-20T11:31:26;2.40;99.90
36800;DHT22;22752;51.960;5.886;2022-11-20T11:34:21;2.40;99.90
36800;DHT22;22752;51.960;5.886;2022-11-20T11:36:56;2.50;99.90
36800;DHT22;22752;51.960;5.886;2022-11-20T11:39:23;2.50;99.90
36800;DHT22;22752;51.960;5.886;2022-11-20T11:41:50;2.60;99.90
36800;DHT22;22752;51.960;5.886;2022-11-20T11:44:20;2.60;99.90
36800;DHT22;22752;51.960;5.886;2022-11-20T11:47:10;2.70;99.90
36800;DHT22;22752;51.960;5.886;2022-11-20T11:49:37;2.70;99.90
36800;DHT22;22752;51.960;5.886;2022-11-20T11:52:21;2.80;99.90
36800;DHT22;22752;51.960;5.886;2022-11-20T11:54:57;2.80;99.90
36800;DHT22;22752;51.960;5.886;2022-11-20T12:05:21;2.80;99.90
36800;DHT22;22752;51.960;5.886;2022-11-20T12:08:36;2.70;99.90
36800;DHT22;22752;51.960;5.886;2022-11-20T12:11:20;2.70;99.90
36800;DHT22;22752;51.960;5.886;2022-11-20T12:13:53;2.70;99.90
36800;DHT22;22752;51.960;5.886;2022-11-20T12:16:21;2.70;99.90
36800;DHT22;22752;51.960;5.886;2022-11-20T12:18:50;2.70;99.90
36800;DHT22;22752;51.960;5.886;2022-11-20T12:27:00;2.70;99.90
36800;DHT22;22752;51.960;5.886;2022-11-20T12:30:03;2.70;99.90
36800;DHT22;22752;51.960;5.886;2022-11-20T12:43:36;3.00;99.90
36800;DHT22;22752;51.960;5.886;2022-11-20T12:49:08;3.00;99.90
36800;DHT22;22752;51.960;5.886;2022-11-20T12:52:06;3.10;99.90
36800;DHT22;22752;51.960;5.886;2022-11-20T12:54:39;3.10;99.90
36800;DHT22;22752;51.960;5.886;2022-11-20T12:57:09;3.20;99.90
36800;DHT22;22752;51.960;5.886;2022-11-20T12:59:53;3.20;99.90
36800;DHT22;22752;51.960;5.886;2022-11-20T13:08:01;3.10;99.90
36800;DHT22;22752;51.960;5.886;2022-11-20T13:13:47;3.10;99.90
36800;DHT22;22752;51.960;5.886;2022-11-20T13:19:11;3.00;99.90
36800;DHT22;22752;51.960;5.886;2022-11-20T13:21:39;3.00;99.90
36800;DHT22;22752;51.960;5.886;2022-11-20T13:24:23;2.90;99.90
36800;DHT22;22752;51.960;5.886;2022-11-20T13:29:42;2.90;99.90
36800;DHT22;22752;51.960;5.886;2022-11-20T13:32:20;2.90;99.90
36800;DHT22;22752;51.960;5.886;2022-11-20T13:35:04;3.00;99.90
36800;DHT22;22752;51.960;5.886;2022-11-20T13:37:33;3.00;99.90
36800;DHT22;22752;51.960;5.886;2022-11-20T13:40:25;3.00;99.90
36800;DHT22;22752;51.960;5.886;2022-11-20T13:43:00;3.00;99.90
36800;DHT22;22752;51.960;5.886;2022-11-20T13:45:29;3.10;99.90
36800;DHT22;22752;51.960;5.886;2022-11-20T13:47:57;3.10;99.90
36800;DHT22;22752;51.960;5.886;2022-11-20T13:50:39;3.00;99.90
36800;DHT22;22752;51.960;5.886;2022-11-20T13:55:54;3.10;99.90
36800;DHT22;22752;51.960;5.886;2022-11-20T14:01:19;3.10;99.90
36800;DHT22;22752;51.960;5.886;2022-11-20T14:03:47;3.00;99.90
36800;DHT22;22752;51.960;5.886;2022-11-20T14:06:41;3.00;99.90
36800;DHT22;22752;51.960;5.886;2022-11-20T14:09:12;3.00;99.90
36800;DHT22;22752;51.960;5.886;2022-11-20T14:11:46;3.00;99.90
36800;DHT22;22752;51.960;5.886;2022-11-20T14:14:17;3.00;99.90
36800;DHT22;22752;51.960;5.886;2022-11-20T14:16:44;3.00;99.90
36800;DHT22;22752;51.960;5.886;2022-11-20T14:22:07;3.00;99.90
36800;DHT22;22752;51.960;5.886;2022-11-20T14:24:33;3.10;99.90
36800;DHT22;22752;51.960;5.886;2022-11-20T14:26:59;3.00;99.90
36800;DHT22;22752;51.960;5.886;2022-11-20T14:29:36;3.00;99.90
36800;DHT22;22752;51.960;5.886;2022-11-20T14:32:03;3.00;99.90
36800;DHT22;22752;51.960;5.886;2022-11-20T14:34:32;3.00;99.90
36800;DHT22;22752;51.960;5.886;2022-11-20T14:37:04;3.00;99.90
36800;DHT22;22752;51.960;5.886;2022-11-20T14:39:52;3.00;99.90
36800;DHT22;22752;51.960;5.886;2022-11-20T14:42:21;3.00;99.90
36800;DHT22;22752;51.960;5.886;2022-11-20T14:44:48;3.00;99.90
36800;DHT22;22752;51.960;5.886;2022-11-20T14:47:19;3.10;99.90
36800;DHT22;22752;51.960;5.886;2022-11-20T14:49:45;3.10;99.90
36800;DHT22;22752;51.960;5.886;2022-11-20T14:52:20;3.10;99.90
36800;DHT22;22752;51.960;5.886;2022-11-20T14:54:50;3.10;99.90
36800;DHT22;22752;51.960;5.886;2022-11-20T14:57:25;3.00;99.90
36800;DHT22;22752;51.960;5.886;2022-11-20T15:00:02;3.00;99.90
36800;DHT22;22752;51.960;5.886;2022-11-20T15:02:30;3.10;99.90
36800;DHT22;22752;51.960;5.886;2022-11-20T15:05:00;3.10;99.90
36800;DHT22;22752;51.960;5.886;2022-11-20T15:07:37;3.10;99.90
36800;DHT22;22752;51.960;5.886;2022-11-20T15:10:11;3.10;99.90
36800;DHT22;22752;51.960;5.886;2022-11-20T15:12:46;3.10;99.90
36800;DHT22;22752;51.960;5.886;2022-11-20T15:15:16;3.10;99.90
36800;DHT22;22752;51.960;5.886;2022-11-20T15:17:43;3.20;99.90
36800;DHT22;22752;51.960;5.886;2022-11-20T15:20:13;3.20;99.90
36800;DHT22;22752;51.960;5.886;2022-11-20T15:22:39;3.20;99.90
36800;DHT22;22752;51.960;5.886;2022-11-20T15:25:15;3.20;99.90
36800;DHT22;22752;51.960;5.886;2022-11-20T15:27:42;3.20;99.90
36800;DHT22;22752;51.960;5.886;2022-11-20T15:30:16;3.20;99.90
36800;DHT22;22752;51.960;5.886;2022-11-20T15:32:43;3.20;99.90
36800;DHT22;22752;51.960;5.886;2022-11-20T15:35:09;3.20;99.90
36800;DHT22;22752;51.960;5.886;2022-11-20T15:37:39;3.30;99.90
36800;DHT22;22752;51.960;5.886;2022-11-20T15:40:05;3.30;99.90
36800;DHT22;22752;51.960;5.886;2022-11-20T15:42:31;3.30;99.90
36800;DHT22;22752;51.960;5.886;2022-11-20T15:44:57;3.30;99.90
36800;DHT22;22752;51.960;5.886;2022-11-20T15:47:27;3.30;99.90
36800;DHT22;22752;51.960;5.886;2022-11-20T15:49:55;3.30;99.90
36800;DHT22;22752;51.960;5.886;2022-11-20T15:52:21;3.30;99.90
36800;DHT22;22752;51.960;5.886;2022-11-20T15:54:46;3.30;99.90
36800;DHT22;22752;51.960;5.886;2022-11-20T15:57:12;3.40;99.90
36800;DHT22;22752;51.960;5.886;2022-11-20T15:59:38;3.40;99.90
36800;DHT22;22752;51.960;5.886;2022-11-20T16:02:14;3.40;99.90
36800;DHT22;22752;51.960;5.886;2022-11-20T16:04:40;3.40;99.90
36800;DHT22;22752;51.960;5.886;2022-11-20T16:07:05;3.40;99.90
36800;DHT22;22752;51.960;5.886;2022-11-20T16:09:31;3.40;99.90
36800;DHT22;22752;51.960;5.886;2022-11-20T16:11:58;3.40;99.90
36800;DHT22;22752;51.960;5.886;2022-11-20T16:14:27;3.40;99.90
36800;DHT22;22752;51.960;5.886;2022-11-20T16:17:12;3.40;99.90
36800;DHT22;22752;51.960;5.886;2022-11-20T16:19:37;3.40;99.90
36800;DHT22;22752;51.960;5.886;2022-11-20T16:22:03;3.40;99.90
36800;DHT22;22752;51.960;5.886;2022-11-20T16:24:29;3.40;99.90
36800;DHT22;22752;51.960;5.886;2022-11-20T16:26:55;3.40;99.90
36800;DHT22;22752;51.960;5.886;2022-11-20T16:29:21;3.40;99.90
36800;DHT22;22752;51.960;5.886;2022-11-20T16:31:46;3.40;99.90
36800;DHT22;22752;51.960;5.886;2022-11-20T16:34:12;3.40;99.90
36800;DHT22;22752;51.960;5.886;2022-11-20T16:36:41;3.40;99.90
36800;DHT22;22752;51.960;5.886;2022-11-20T16:39:08;3.40;99.90
36800;DHT22;22752;51.960;5.886;2022-11-20T16:41:34;3.40;99.90
36800;DHT22;22752;51.960;5.886;2022-11-20T16:44:02;3.40;99.90
36800;DHT22;22752;51.960;5.886;2022-11-20T16:46:31;3.40;99.90
36800;DHT22;22752;51.960;5.886;2022-11-20T16:49:02;3.30;99.90
36800;DHT22;22752;51.960;5.886;2022-11-20T16:51:29;3.40;99.90
36800;DHT22;22752;51.960;5.886;2022-11-20T16:53:56;3.40;99.90
36800;DHT22;22752;51.960;5.886;2022-11-20T16:56:26;3.40;99.90
36800;DHT22;22752;51.960;5.886;2022-11-20T16:58:54;3.50;99.90
36800;DHT22;22752;51.960;5.886;2022-11-20T17:01:22;3.50;99.90
36800;DHT22;22752;51.960;5.886;2022-11-20T17:03:59;3.50;99.90
36800;DHT22;22752;51.960;5.886;2022-11-20T17:06:28;3.50;99.90
36800;DHT22;22752;51.960;5.886;2022-11-20T17:08:54;3.50;99.90
36800;DHT22;22752;51.960;5.886;2022-11-20T17:11:21;3.50;99.90
36800;DHT22;22752;51.960;5.886;2022-11-20T17:13:46;3.40;99.90
36800;DHT22;22752;51.960;5.886;2022-11-20T17:16:14;3.50;99.90